Union Park, Florida
Current Conditions -  °F | °C
As of 6:53 PM on Friday 19 Dec 2014 (Local Time) from KORL Reporting Station
Clear Clear  
Wind Chill: 64°   Ceiling: Unl
Heat Index: 64°   Visibility: 10mi
Dew Point: 44°   Wind: 5mph
Humidity: 48%   Direction: 60°ENE
Pressure: 30.08"   Gusts: NA
Location:  28.5912°N, 81.2456°W
Report Text: KORL 192353Z 06004KT 10SM CLR 18/07 A3008 RMK AO2 SLP191 T01780067 10222 20172 51006
Loading
Personal Weather Stations






























Interactive Weather Map New forecast layout! Learn more

10-Day Weather Forecast

Advertisements
Track Severe Weather on mobile